Time;durP1;ratioP1;P1;durP2;ratioP2;P2;SDS_P1;SDS_P2;PMS_P1;PMS_P2;Temp;Humidity;BMP_temperature;BMP_pressure;BME280_temperature;BME280_humidity;BME280_pressure;Samples;Min_cycle;Max_cycle;Signal;HPM_P1;HPM_P2
2023/06/18 00:00:00;;;;;;;11.40;10.20;;;;;;;20.18;100.00;101001.72;2074411;28;20185;-66
2023/06/18 00:01:00;;;;;;;12.77;11.23;;;;;;;20.17;100.00;101005.03;2074396;28;20396;-66
2023/06/18 00:02:01;;;;;;;11.67;10.47;;;;;;;20.12;100.00;101005.72;2074502;28;20571;-66
2023/06/18 00:03:02;;;;;;;13.03;10.77;;;;;;;20.16;100.00;101012.66;2073583;28;20221;-67
2023/06/18 00:04:02;;;;;;;13.07;10.60;;;;;;;20.16;100.00;101011.91;2073876;28;20201;-67
2023/06/18 00:05:03;;;;;;;13.13;10.57;;;;;;;20.20;100.00;101013.25;2074411;28;20184;-66
2023/06/18 00:06:03;;;;;;;12.00;10.77;;;;;;;20.17;100.00;101013.47;2074478;28;20261;-66
2023/06/18 00:07:04;;;;;;;12.10;10.90;;;;;;;20.17;100.00;101010.66;2073706;28;20185;-66
2023/06/18 00:08:05;;;;;;;11.73;10.60;;;;;;;20.20;100.00;101016.06;2073685;28;20606;-67
2023/06/18 00:09:06;;;;;;;11.80;10.70;;;;;;;20.03;100.00;100992.50;2074455;28;20186;-66
2023/06/18 00:10:07;;;;;;;14.53;11.13;;;;;;;20.16;100.00;101012.66;2074322;28;20425;-67
2023/06/18 00:11:08;;;;;;;14.03;10.53;;;;;;;19.77;100.00;100946.59;2074044;28;20194;-66
2023/06/18 00:12:08;;;;;;;12.60;10.27;;;;;;;20.04;100.00;100984.81;2074326;28;20560;-67
2023/06/18 00:13:09;;;;;;;11.43;10.27;;;;;;;20.15;100.00;101010.34;2081501;28;20193;-66
2023/06/18 00:14:09;;;;;;;14.87;10.80;;;;;;;20.16;100.00;101015.50;2082009;28;20573;-66
2023/06/18 00:15:10;;;;;;;11.47;10.37;;;;;;;20.16;100.00;101009.84;2074108;28;20173;-66
2023/06/18 00:16:10;;;;;;;11.70;10.70;;;;;;;20.14;100.00;101012.41;2074476;28;20655;-66
2023/06/18 00:17:11;;;;;;;12.37;10.33;;;;;;;20.09;100.00;101007.47;2074347;28;20182;-66
2023/06/18 00:18:11;;;;;;;11.40;10.20;;;;;;;19.96;100.00;100983.69;2074020;28;20280;-67
2023/06/18 00:19:13;;;;;;;11.73;10.57;;;;;;;20.09;100.00;101003.84;2074072;28;20186;-66
2023/06/18 00:20:13;;;;;;;12.13;10.83;;;;;;;20.11;100.00;101010.56;2074356;28;20757;-67
2023/06/18 00:21:14;;;;;;;13.60;11.20;;;;;;;20.00;100.00;100987.09;2074306;28;20962;-66
2023/06/18 00:22:15;;;;;;;12.03;10.83;;;;;;;20.15;100.00;101004.72;2074294;28;20170;-67
2023/06/18 00:23:15;;;;;;;11.57;10.30;;;;;;;19.25;100.00;100873.66;2073900;28;20189;-66
2023/06/18 00:24:16;;;;;;;11.73;10.57;;;;;;;20.10;100.00;100997.75;2074329;28;20184;-66
2023/06/18 00:25:16;;;;;;;12.13;10.80;;;;;;;20.06;100.00;101005.59;2074291;28;20324;-68
2023/06/18 00:26:17;;;;;;;12.17;10.97;;;;;;;20.05;100.00;100994.84;2074355;28;20186;-67
2023/06/18 00:27:17;;;;;;;12.33;10.90;;;;;;;19.59;100.00;100929.94;2069162;28;20191;-66
2023/06/18 00:28:18;;;;;;;10.80;9.80;;;;;;;19.62;100.00;100934.59;2066162;28;20206;-66
2023/06/18 00:29:18;;;;;;;11.70;10.57;;;;;;;20.08;100.00;101003.09;2068703;28;20573;-66
2023/06/18 00:30:18;;;;;;;11.23;10.23;;;;;;;20.09;100.00;101006.69;2074281;28;20640;-66
2023/06/18 00:31:19;;;;;;;11.80;10.67;;;;;;;20.13;100.00;101012.88;2073923;28;20254;-66
2023/06/18 00:32:20;;;;;;;11.53;10.37;;;;;;;20.11;100.00;101006.97;2074122;28;20182;-66
2023/06/18 00:33:22;;;;;;;12.20;10.77;;;;;;;20.12;100.00;101008.53;2073056;28;20642;-66
2023/06/18 00:34:32;;;;;;;11.20;10.10;;;;;;;20.07;100.00;101012.00;2073946;28;20178;-66
2023/06/18 00:35:32;;;;;;;11.13;10.03;;;;;;;20.05;100.00;101008.91;2074162;28;20417;-66
2023/06/18 00:36:33;;;;;;;12.50;10.43;;;;;;;20.05;100.00;101011.72;2074101;28;20451;-66
2023/06/18 00:37:34;;;;;;;11.07;10.07;;;;;;;20.02;100.00;101010.66;2074086;28;20177;-67
2023/06/18 00:38:35;;;;;;;12.73;10.23;;;;;;;19.98;100.00;101006.47;2074203;28;20178;-66
2023/06/18 00:39:37;;;;;;;11.10;10.07;;;;;;;19.96;100.00;101009.00;2074246;28;20565;-66
2023/06/18 00:40:37;;;;;;;12.93;10.03;;;;;;;19.63;100.00;100953.00;2074030;28;20571;-66
2023/06/18 00:41:38;;;;;;;10.90;9.80;;;;;;;20.01;100.00;101009.09;2081604;28;20465;-66
2023/06/18 00:42:39;;;;;;;11.47;10.27;;;;;;;20.00;100.00;101006.78;2081762;28;20708;-66
2023/06/18 00:43:40;;;;;;;11.93;10.10;;;;;;;19.97;100.00;101004.94;2073342;28;20675;-66
2023/06/18 00:44:40;;;;;;;11.60;10.40;;;;;;;19.97;100.00;101008.53;2073439;28;20873;-66
2023/06/18 00:45:41;;;;;;;12.57;10.27;;;;;;;20.00;100.00;101006.78;2073368;28;20292;-66
2023/06/18 00:46:46;;;;;;;11.60;10.40;;;;;;;19.35;100.00;100906.78;2073432;28;20628;-67
2023/06/18 00:47:48;;;;;;;10.30;9.40;;;;;;;19.95;100.00;100999.78;2074043;28;20181;-66
2023/06/18 00:48:48;;;;;;;12.03;10.70;;;;;;;19.96;100.00;100992.13;2074019;28;20503;-66
2023/06/18 00:49:50;;;;;;;14.33;10.20;;;;;;;19.91;100.00;100976.69;2074096;28;20416;-67
2023/06/18 00:50:51;;;;;;;11.13;10.10;;;;;;;20.10;100.00;100999.78;2074112;28;20185;-66
2023/06/18 00:51:52;;;;;;;15.33;10.27;;;;;;;20.00;100.00;100979.41;2074005;28;20479;-66
2023/06/18 00:52:59;;;;;;;11.30;10.30;;;;;;;20.11;100.00;101001.34;2074021;28;20429;-66
2023/06/18 00:54:00;;;;;;;12.73;9.83;;;;;;;20.13;100.00;100990.38;2074044;28;20405;-66
2023/06/18 00:55:02;;;;;;;11.10;10.10;;;;;;;20.16;100.00;100998.59;2074067;28;20431;-67
2023/06/18 00:56:02;;;;;;;11.13;10.00;;;;;;;20.10;100.00;100994.16;2074150;28;20196;-66
2023/06/18 00:57:04;;;;;;;10.90;9.80;;;;;;;20.11;100.00;100990.09;2073962;28;20436;-66
2023/06/18 00:58:05;;;;;;;10.50;9.60;;;;;;;19.42;100.00;100889.53;2073974;28;20548;-66
2023/06/18 00:59:05;;;;;;;10.33;9.33;;;;;;;20.19;100.00;101005.28;2073982;28;20578;-66
2023/06/18 01:00:12;;;;;;;10.80;9.70;;;;;;;20.19;100.00;101008.09;2074071;28;20651;-66
2023/06/18 01:01:14;;;;;;;12.73;9.97;;;;;;;20.13;100.00;101004.44;2073036;28;20261;-66
2023/06/18 01:02:23;;;;;;;11.87;9.97;;;;;;;20.11;100.00;101006.97;2073296;28;20432;-66
2023/06/18 01:03:25;;;;;;;14.03;9.67;;;;;;;20.13;100.00;101010.84;2073233;28;20933;-67
2023/06/18 01:04:27;;;;;;;12.07;10.17;;;;;;;20.17;100.00;101007.84;2065313;28;20425;-67
2023/06/18 01:05:31;;;;;;;12.00;9.50;;;;;;;20.17;100.00;101007.84;2065850;28;20425;-66
2023/06/18 01:06:34;;;;;;;11.17;9.37;;;;;;;20.18;100.00;101012.19;2072330;28;20506;-67
2023/06/18 01:07:37;;;;;;;12.37;10.13;;;;;;;20.18;100.00;101009.38;2073864;28;20825;-66
2023/06/18 01:08:40;;;;;;;11.60;9.90;;;;;;;20.20;100.00;101012.47;2073751;28;20432;-67
2023/06/18 01:09:41;;;;;;;14.27;10.50;;;;;;;19.73;100.00;100937.56;2073969;28;20751;-66
2023/06/18 01:10:42;;;;;;;10.70;9.70;;;;;;;19.80;100.00;100944.84;2073899;28;20570;-66
2023/06/18 01:11:42;;;;;;;10.70;9.70;;;;;;;20.25;100.00;101012.56;2073255;28;20554;-66
2023/06/18 01:12:48;;;;;;;10.50;9.47;;;;;;;20.27;100.00;101018.47;2073176;28;20177;-66
2023/06/18 01:13:48;;;;;;;13.73;9.67;;;;;;;19.85;100.00;100952.59;2073928;28;20618;-66
2023/06/18 01:14:51;;;;;;;10.80;9.70;;;;;;;20.27;100.00;101020.53;2073175;28;20428;-66
2023/06/18 01:15:52;;;;;;;10.30;9.30;;;;;;;19.85;100.00;100956.16;2073181;28;20224;-66
2023/06/18 01:16:58;;;;;;;12.07;9.50;;;;;;;20.34;100.00;101025.72;2073721;28;20428;-67
2023/06/18 01:17:59;;;;;;;11.30;10.17;;;;;;;20.34;100.00;101022.91;2073892;28;20671;-66
2023/06/18 01:19:01;;;;;;;12.63;9.73;;;;;;;20.25;100.00;101029.44;2073675;28;20502;-66
2023/06/18 01:20:09;;;;;;;9.80;8.80;;;;;;;20.27;100.00;101024.09;2073683;28;20244;-68
2023/06/18 01:21:19;;;;;;;15.80;9.53;;;;;;;20.32;100.00;101020.59;2073857;28;20791;-66
2023/06/18 01:22:26;;;;;;;20.50;10.13;;;;;;;19.47;100.00;100896.50;2073910;28;20488;-66
2023/06/18 01:23:30;;;;;;;11.23;9.40;;;;;;;20.34;100.00;101023.69;2073778;28;20433;-66
2023/06/18 01:24:36;;;;;;;10.40;9.33;;;;;;;20.32;100.00;101020.59;2073676;28;20431;-69
2023/06/18 01:25:37;;;;;;;10.73;9.70;;;;;;;20.31;100.00;101018.28;2073894;28;20397;-67
2023/06/18 01:26:41;;;;;;;10.67;9.57;;;;;;;19.90;100.00;100971.59;2073707;28;20427;-66
2023/06/18 01:27:43;;;;;;;11.97;10.00;;;;;;;20.24;100.00;101018.66;2072977;28;20663;-66
2023/06/18 01:28:44;;;;;;;9.77;8.87;;;;;;;20.30;100.00;101025.16;2073113;28;20421;-66
2023/06/18 01:29:44;;;;;;;10.03;9.00;;;;;;;20.30;100.00;101020.31;2073749;28;20425;-66
2023/06/18 01:30:45;;;;;;;11.20;10.00;;;;;;;20.30;100.00;101020.31;2073777;28;20246;-66
2023/06/18 01:31:45;;;;;;;10.50;9.37;;;;;;;19.82;100.00;100942.31;2073649;28;20210;-67
2023/06/18 01:32:46;;;;;;;11.93;9.13;;;;;;;20.28;100.00;101016.44;2073560;28;20675;-66
2023/06/18 01:33:51;;;;;;;12.67;8.90;;;;;;;19.72;100.00;100929.63;2073801;28;20729;-67
2023/06/18 01:34:53;;;;;;;10.57;9.50;;;;;;;20.28;100.00;101008.78;2073792;28;20686;-66
2023/06/18 01:35:54;;;;;;;12.17;9.50;;;;;;;20.26;100.00;101014.09;2073642;28;20455;-66
2023/06/18 01:37:17;;;;;;;13.33;9.43;;;;;;;20.30;100.00;101014.69;2073730;28;20412;-67
2023/06/18 01:38:43;;;;;;;10.20;9.10;;;;;;;20.27;100.00;101014.88;2065657;28;20174;-66
2023/06/18 01:39:44;;;;;;;11.23;8.80;;;;;;;20.15;100.00;101015.97;2068880;28;20452;-66
2023/06/18 01:40:54;;;;;;;10.47;9.30;;;;;;;20.15;100.00;101019.56;2073700;28;20431;-66
2023/06/18 01:42:11;;;;;;;9.93;8.93;;;;;;;19.50;100.00;100932.09;2073684;28;20218;-67
2023/06/18 01:43:30;;;;;;;11.30;8.83;;;;;;;20.16;100.00;101009.84;2072884;28;20424;-66
2023/06/18 01:44:31;;;;;;;10.00;8.47;;;;;;;20.14;100.00;100998.31;2072674;28;20937;-66
2023/06/18 01:45:42;;;;;;;10.30;8.70;;;;;;;20.18;100.00;101012.97;2073505;28;20827;-66
2023/06/18 01:46:43;;;;;;;9.50;8.60;;;;;;;19.88;100.00;100966.44;2073484;28;20170;-67
2023/06/18 01:47:45;;;;;;;9.80;8.90;;;;;;;19.79;100.00;100954.50;2073389;28;20438;-66
2023/06/18 01:48:58;;;;;;;12.47;8.73;;;;;;;20.06;100.00;100999.94;2073741;28;20178;-66
2023/06/18 01:50:01;;;;;;;10.40;8.20;;;;;;;20.03;100.00;101005.78;2065419;28;20483;-67
2023/06/18 01:51:04;;;;;;;9.87;8.03;;;;;;;19.18;100.00;100880.41;2065452;28;20805;-66
2023/06/18 01:52:07;;;;;;;10.43;8.43;;;;;;;20.05;100.00;101006.84;2072412;28;20514;-68
2023/06/18 01:53:11;;;;;;;10.30;8.57;;;;;;;20.05;100.00;101006.09;2073299;28;20494;-66
2023/06/18 01:54:13;;;;;;;8.73;7.90;;;;;;;20.00;100.00;101010.34;2073599;28;20571;-67
2023/06/18 01:55:15;;;;;;;9.00;8.10;;;;;;;19.97;100.00;101007.75;2073361;28;20432;-66
2023/06/18 01:56:17;;;;;;;9.20;8.20;;;;;;;20.03;100.00;101003.75;2073644;28;20949;-67
2023/06/18 01:57:18;;;;;;;11.13;8.50;;;;;;;20.02;100.00;101002.22;2073365;28;20424;-66
2023/06/18 01:58:21;;;;;;;9.07;8.17;;;;;;;20.04;100.00;101015.78;2073638;28;20425;-66
2023/06/18 01:59:22;;;;;;;9.30;8.20;;;;;;;20.02;100.00;101016.28;2073408;28;20437;-66
2023/06/18 02:00:22;;;;;;;9.63;8.13;;;;;;;19.39;100.00;100921.41;2073524;28;20421;-66
2023/06/18 02:01:24;;;;;;;10.83;8.17;;;;;;;19.97;100.00;101000.09;2073414;28;20182;-66
2023/06/18 02:02:25;;;;;;;9.57;8.30;;;;;;;20.03;100.00;101015.00;2073493;28;20563;-67
2023/06/18 02:03:25;;;;;;;9.00;7.83;;;;;;;19.99;100.00;101008.81;2072981;28;20444;-67
2023/06/18 02:04:26;;;;;;;9.30;8.40;;;;;;;20.04;100.00;101013.75;2073524;28;20312;-66
2023/06/18 02:05:26;;;;;;;8.73;7.77;;;;;;;20.09;100.00;101013.09;2073197;28;20186;-66
2023/06/18 02:06:27;;;;;;;9.33;8.33;;;;;;;20.10;100.00;101013.84;2073553;28;20249;-66
2023/06/18 02:07:27;;;;;;;10.63;8.17;;;;;;;20.12;100.00;101016.97;2073351;28;20273;-66
2023/06/18 02:08:28;;;;;;;9.00;8.10;;;;;;;19.77;100.00;100963.47;2073311;28;20221;-67
2023/06/18 02:09:28;;;;;;;9.13;8.20;;;;;;;20.10;100.00;101017.44;2073418;28;20216;-66
2023/06/18 02:10:29;;;;;;;9.87;8.27;;;;;;;20.07;100.00;101018.41;2073243;28;20614;-66
2023/06/18 02:11:29;;;;;;;9.30;8.40;;;;;;;20.09;100.00;101015.91;2073044;28;20173;-66
2023/06/18 02:12:29;;;;;;;8.73;7.80;;;;;;;20.13;100.00;101015.69;2073320;28;20235;-66
2023/06/18 02:13:30;;;;;;;9.27;8.03;;;;;;;20.13;100.00;101021.31;2073231;28;20268;-67
2023/06/18 02:14:30;;;;;;;10.10;9.13;;;;;;;20.17;100.00;101019.84;2073334;28;20186;-66
2023/06/18 02:15:31;;;;;;;9.53;7.90;;;;;;;20.19;100.00;101027.81;2073146;28;20750;-67
2023/06/18 02:16:31;;;;;;;9.03;8.13;;;;;;;20.15;100.00;101022.38;2073285;28;20216;-66
2023/06/18 02:17:32;;;;;;;10.43;8.10;;;;;;;20.21;100.00;101019.66;2073127;28;20627;-66
2023/06/18 02:18:32;;;;;;;8.50;7.70;;;;;;;20.06;100.00;100999.94;2073446;28;20632;-66
2023/06/18 02:19:33;;;;;;;8.17;7.40;;;;;;;20.24;100.00;101015.84;2073159;28;20229;-66
2023/06/18 02:20:33;;;;;;;11.23;7.90;;;;;;;20.12;100.00;101012.09;2073137;28;20255;-66
2023/06/18 02:21:34;;;;;;;10.83;7.90;;;;;;;19.24;100.00;100866.50;2073409;28;20261;-66
2023/06/18 02:22:35;;;;;;;9.90;8.20;;;;;;;20.21;100.00;101019.66;2073372;28;20177;-66
2023/06/18 02:23:35;;;;;;;15.13;8.70;;;;;;;20.22;100.00;101024.78;2072967;28;20636;-66
2023/06/18 02:24:36;;;;;;;9.23;8.17;;;;;;;20.19;100.00;101025.00;2073364;28;20178;-66
2023/06/18 02:25:37;;;;;;;9.03;7.90;;;;;;;20.17;100.00;101019.84;2073203;28;20643;-66
2023/06/18 02:26:37;;;;;;;9.40;7.70;;;;;;;20.21;100.00;101023.25;2073198;28;20174;-66
2023/06/18 02:27:38;;;;;;;9.67;7.37;;;;;;;20.20;100.00;101018.09;2073295;28;20178;-67
2023/06/18 02:28:38;;;;;;;10.13;7.83;;;;;;;20.19;100.00;101019.38;2073190;28;20173;-66
2023/06/18 02:29:38;;;;;;;8.57;7.50;;;;;;;20.17;100.00;101021.91;2073231;28;20292;-66
2023/06/18 02:30:39;;;;;;;8.50;7.67;;;;;;;20.21;100.00;101028.09;2073257;28;20248;-66
2023/06/18 02:31:39;;;;;;;8.70;7.63;;;;;;;20.20;100.00;101021.69;2073175;28;20312;-66
2023/06/18 02:32:40;;;;;;;8.27;7.50;;;;;;;20.18;100.00;101017.81;2073032;28;20174;-66
2023/06/18 02:33:40;;;;;;;8.93;8.00;;;;;;;20.19;100.00;101025.00;2073089;28;20288;-66
2023/06/18 02:34:41;;;;;;;10.40;7.77;;;;;;;20.19;100.00;101020.16;2072350;28;20204;-66
2023/06/18 02:35:41;;;;;;;9.53;7.53;;;;;;;20.24;100.00;101021.47;2072509;28;20236;-67
2023/06/18 02:36:41;;;;;;;8.50;7.70;;;;;;;20.21;100.00;101026.06;2073145;28;20659;-66
2023/06/18 02:37:42;;;;;;;10.37;8.00;;;;;;;20.22;100.00;101021.22;2073132;28;20815;-66
2023/06/18 02:38:42;;;;;;;9.67;7.30;;;;;;;19.56;100.00;100921.69;2073240;28;20178;-66
2023/06/18 02:39:43;;;;;;;7.90;7.17;;;;;;;20.07;100.00;101009.19;2065075;28;20255;-66
2023/06/18 02:40:43;;;;;;;11.60;7.30;;;;;;;20.19;100.00;101053.91;2065198;28;20236;-66
2023/06/18 02:41:44;;;;;;;8.30;7.50;;;;;;;20.25;100.00;101028.66;2069761;28;20182;-66
2023/06/18 02:42:47;;;;;;;9.93;7.50;;;;;;;20.25;100.00;101032.25;2073081;28;20181;-66
2023/06/18 02:43:49;;;;;;;8.70;7.27;;;;;;;20.18;100.00;101023.44;2073339;28;20178;-66
2023/06/18 02:44:49;;;;;;;12.33;7.53;;;;;;;20.18;100.00;101023.44;2072860;28;20448;-67
2023/06/18 02:45:51;;;;;;;8.57;7.37;;;;;;;20.22;100.00;101030.41;2073233;28;20427;-67
2023/06/18 02:46:51;;;;;;;10.07;7.23;;;;;;;20.22;100.00;101030.41;2073104;28;20185;-66
2023/06/18 02:47:52;;;;;;;7.70;6.97;;;;;;;20.22;100.00;101024.78;2073175;28;20475;-66
2023/06/18 02:48:52;;;;;;;8.37;7.47;;;;;;;20.26;100.00;101025.34;2072976;28;20196;-67
2023/06/18 02:49:53;;;;;;;10.03;7.03;;;;;;;20.24;100.00;101033.53;2073152;28;20185;-66
2023/06/18 02:50:53;;;;;;;10.20;7.57;;;;;;;20.24;100.00;101027.91;2072376;28;20660;-66
2023/06/18 02:51:53;;;;;;;8.93;7.33;;;;;;;20.34;100.00;101034.97;2072585;28;20749;-66
2023/06/18 02:52:55;;;;;;;7.80;7.10;;;;;;;20.35;100.00;101027.28;2072391;28;20204;-67
2023/06/18 02:53:57;;;;;;;8.93;7.30;;;;;;;20.35;100.00;101030.09;2072420;28;20181;-66
2023/06/18 02:54:57;;;;;;;10.83;7.30;;;;;;;20.31;100.00;101032.34;2073046;28;20428;-66
2023/06/18 02:55:57;;;;;;;8.57;7.17;;;;;;;20.33;100.00;101030.59;2072874;28;20463;-66
2023/06/18 02:56:58;;;;;;;8.27;7.20;;;;;;;20.34;100.00;101034.16;2072478;28;20238;-67
2023/06/18 02:57:58;;;;;;;7.67;6.97;;;;;;;20.26;100.00;101031.00;2073082;28;20181;-66
2023/06/18 02:58:59;;;;;;;9.90;7.00;;;;;;;20.29;100.00;101046.91;2073052;28;20217;-66
2023/06/18 02:59:59;;;;;;;7.90;7.10;;;;;;;19.94;100.00;100981.38;2072991;28;20673;-66
2023/06/18 03:01:00;;;;;;;9.03;7.00;;;;;;;19.38;100.00;100905.03;2072772;28;20617;-66
2023/06/18 03:02:04;;;;;;;8.23;7.43;;;;;;;19.60;100.00;100928.66;2073003;28;20181;-66
2023/06/18 03:03:06;;;;;;;7.83;7.13;;;;;;;20.32;100.00;101057.16;2072753;28;20200;-66
2023/06/18 03:04:06;;;;;;;7.50;6.70;;;;;;;20.32;100.00;101040.28;2073077;28;20464;-66
2023/06/18 03:05:07;;;;;;;8.93;6.93;;;;;;;20.37;100.00;101044.47;2072885;28;20190;-66
2023/06/18 03:06:08;;;;;;;8.30;7.17;;;;;;;20.38;100.00;101038.34;2073158;28;20202;-66
2023/06/18 03:07:08;;;;;;;8.47;7.20;;;;;;;20.28;100.00;101039.75;2073107;28;20424;-66
2023/06/18 03:08:09;;;;;;;9.17;7.50;;;;;;;20.23;100.00;101048.88;2072951;28;20280;-66
2023/06/18 03:09:09;;;;;;;11.33;7.70;;;;;;;20.27;100.00;101049.41;2073042;28;20261;-66
2023/06/18 03:10:09;;;;;;;7.70;6.87;;;;;;;20.31;100.00;101043.63;2073119;28;20201;-66
2023/06/18 03:11:10;;;;;;;7.67;6.80;;;;;;;20.31;100.00;101049.25;2073118;28;20184;-66
2023/06/18 03:12:11;;;;;;;12.97;7.50;;;;;;;20.27;100.00;101048.66;2072897;28;20208;-66
2023/06/18 03:13:12;;;;;;;7.93;7.13;;;;;;;20.28;100.00;101042.56;2072718;28;20272;-66
2023/06/18 03:14:12;;;;;;;8.60;7.60;;;;;;;20.34;100.00;101039.81;2073143;28;20272;-67
2023/06/18 03:15:12;;;;;;;9.30;6.90;;;;;;;20.41;100.00;101051.44;2072968;28;20264;-66
2023/06/18 03:16:13;;;;;;;7.20;6.50;;;;;;;20.38;100.00;101057.28;2073122;28;20200;-67
2023/06/18 03:17:13;;;;;;;8.53;7.40;;;;;;;20.44;100.00;101061.72;2072277;28;20199;-67
2023/06/18 03:18:14;;;;;;;7.63;6.97;;;;;;;20.42;100.00;101057.84;2072450;28;20561;-66
2023/06/18 03:19:14;;;;;;;8.03;7.00;;;;;;;20.17;100.00;101016.28;2072870;28;20181;-67
2023/06/18 03:20:15;;;;;;;7.93;7.13;;;;;;;20.39;100.00;101053.19;2073122;28;20169;-66
2023/06/18 03:21:15;;;;;;;9.63;7.97;;;;;;;20.41;100.00;101059.88;2072917;28;20193;-66
2023/06/18 03:22:18;;;;;;;9.67;7.10;;;;;;;20.42;100.00;101060.66;2072934;28;20177;-66
2023/06/18 03:23:20;;;;;;;8.47;7.10;;;;;;;20.45;100.00;101057.63;2072835;28;20213;-67
2023/06/18 03:24:21;;;;;;;9.73;7.90;;;;;;;20.42;100.00;101055.03;2073103;28;20513;-67
2023/06/18 03:25:21;;;;;;;8.43;7.53;;;;;;;19.51;100.00;100911.13;2073117;28;20181;-67
2023/06/18 03:26:22;;;;;;;8.83;7.70;;;;;;;20.48;100.00;101058.69;2073112;28;20189;-66
2023/06/18 03:27:22;;;;;;;8.53;7.47;;;;;;;20.48;100.00;101067.94;2072855;28;20268;-66
2023/06/18 03:28:24;;;;;;;8.97;7.30;;;;;;;20.47;100.00;101068.41;2072316;28;20670;-66
2023/06/18 03:29:25;;;;;;;9.23;7.53;;;;;;;19.44;100.00;100912.31;2072261;28;20244;-67
2023/06/18 03:30:26;;;;;;;9.30;7.80;;;;;;;20.45;100.00;101071.72;2072904;28;20547;-66
2023/06/18 03:31:26;;;;;;;11.83;7.40;;;;;;;20.47;100.00;101076.88;2072066;28;20603;-66
2023/06/18 03:32:27;;;;;;;11.27;7.03;;;;;;;20.44;100.00;101070.16;2072451;28;20610;-67
2023/06/18 03:33:29;;;;;;;8.57;7.13;;;;;;;20.52;100.00;101082.56;2072741;28;20216;-66
2023/06/18 03:34:31;;;;;;;8.17;6.97;;;;;;;20.51;100.00;101074.59;2072084;28;20192;-66
2023/06/18 03:35:32;;;;;;;7.33;6.63;;;;;;;20.48;100.00;101076.38;2072075;28;20494;-67
2023/06/18 03:36:39;;;;;;;11.57;7.57;;;;;;;20.47;100.00;101076.88;2072818;28;20503;-67
2023/06/18 03:37:40;;;;;;;9.40;7.40;;;;;;;20.49;100.00;101077.94;2072951;28;20817;-66
2023/06/18 03:38:40;;;;;;;9.60;7.40;;;;;;;20.53;100.00;101069.28;2072796;28;20444;-66
2023/06/18 03:39:41;;;;;;;8.33;7.27;;;;;;;20.53;100.00;101074.91;2072982;28;20235;-66
2023/06/18 03:40:41;;;;;;;9.20;7.70;;;;;;;20.45;100.00;101057.63;2072935;28;20264;-67
2023/06/18 03:41:42;;;;;;;10.10;7.17;;;;;;;20.56;100.00;101074.69;2072996;28;20182;-66
2023/06/18 03:42:43;;;;;;;9.93;7.57;;;;;;;20.61;100.00;101082.44;2072646;28;20690;-66
2023/06/18 03:43:43;;;;;;;9.83;7.47;;;;;;;20.58;100.00;101077.78;2072803;28;20585;-66
2023/06/18 03:44:43;;;;;;;8.00;6.80;;;;;;;20.55;100.00;101072.34;2072949;28;21010;-67
2023/06/18 03:45:44;;;;;;;8.87;7.97;;;;;;;20.55;100.00;101075.16;2072207;28;20201;-66
2023/06/18 03:46:44;;;;;;;10.27;7.27;;;;;;;20.57;100.00;101083.94;2072335;28;20178;-66
2023/06/18 03:47:45;;;;;;;8.33;7.53;;;;;;;20.54;100.00;101080.03;2072642;28;20182;-66
2023/06/18 03:48:45;;;;;;;9.63;7.63;;;;;;;20.56;100.00;101087.97;2072661;28;20189;-67
2023/06/18 03:49:46;;;;;;;7.97;7.17;;;;;;;20.52;100.00;101081.81;2072981;28;20186;-66
2023/06/18 03:50:46;;;;;;;8.83;6.97;;;;;;;20.51;100.00;101083.03;2072784;28;20268;-66
2023/06/18 03:51:47;;;;;;;9.30;7.27;;;;;;;20.16;100.00;101028.81;2072731;28;20202;-66
2023/06/18 03:52:47;;;;;;;9.80;7.07;;;;;;;20.10;100.00;101036.34;2072710;28;20625;-66
2023/06/18 03:53:48;;;;;;;8.83;7.83;;;;;;;20.49;100.00;101092.00;2072893;28;20186;-67
2023/06/18 03:54:48;;;;;;;7.87;7.17;;;;;;;20.49;100.00;101089.19;2072901;28;20244;-66
2023/06/18 03:55:49;;;;;;;7.93;7.13;;;;;;;20.43;100.00;101082.69;2073057;28;20197;-66
2023/06/18 03:56:49;;;;;;;8.93;6.90;;;;;;;20.45;100.00;101082.19;2072659;28;20208;-67
2023/06/18 03:57:50;;;;;;;10.70;7.47;;;;;;;20.40;100.00;101092.13;2072868;28;20166;-66
2023/06/18 03:58:50;;;;;;;8.90;7.30;;;;;;;20.32;100.00;101088.13;2072862;28;20664;-66
2023/06/18 03:59:51;;;;;;;8.10;7.30;;;;;;;20.27;100.00;101077.56;2072801;28;20260;-67
2023/06/18 04:00:52;;;;;;;8.07;6.67;;;;;;;20.24;100.00;101095.44;2072713;28;20284;-66
2023/06/18 04:01:52;;;;;;;7.73;6.97;;;;;;;20.24;100.00;101092.63;2072834;28;20430;-66
2023/06/18 04:02:53;;;;;;;8.57;6.80;;;;;;;20.27;100.00;101094.44;2072370;28;20186;-66
2023/06/18 04:03:53;;;;;;;7.53;6.83;;;;;;;20.20;100.00;101100.50;2072809;28;20182;-67
2023/06/18 04:04:53;;;;;;;7.83;7.13;;;;;;;20.17;100.00;101106.31;2072351;28;20261;-66
2023/06/18 04:05:54;;;;;;;8.70;7.00;;;;;;;19.46;100.00;100996.13;2072915;28;20182;-66
2023/06/18 04:06:54;;;;;;;8.90;6.80;;;;;;;20.10;100.00;101093.41;2072014;28;20189;-67
2023/06/18 04:07:55;;;;;;;8.10;7.30;;;;;;;20.07;100.00;101099.22;2072767;28;20248;-66
2023/06/18 04:08:55;;;;;;;10.70;7.43;;;;;;;20.04;100.00;101097.34;2074002;28;20221;-66
2023/06/18 04:09:56;;;;;;;7.73;6.97;;;;;;;19.97;100.00;101083.69;2074318;28;20208;-66
2023/06/18 04:10:58;;;;;;;7.93;7.23;;;;;;;20.04;100.00;101102.97;2074346;28;20178;-66
2023/06/18 04:11:58;;;;;;;8.20;7.40;;;;;;;20.05;100.00;101104.56;2074165;28;20205;-66
2023/06/18 04:12:59;;;;;;;8.73;6.80;;;;;;;20.03;100.00;101102.22;2074059;28;20436;-66
2023/06/18 04:13:59;;;;;;;9.63;7.67;;;;;;;20.07;100.00;101104.84;2074349;28;20192;-66
2023/06/18 04:15:00;;;;;;;8.80;7.47;;;;;;;20.04;100.00;101103.78;2073836;28;20190;-67
2023/06/18 04:16:00;;;;;;;9.50;7.50;;;;;;;20.09;100.00;101105.16;2070817;28;20345;-66
2023/06/18 04:17:01;;;;;;;10.77;7.13;;;;;;;20.09;100.00;101103.13;2069352;28;20189;-67
2023/06/18 04:18:01;;;;;;;8.17;7.20;;;;;;;19.27;100.00;100967.44;2074089;28;20189;-67
2023/06/18 04:19:02;;;;;;;7.70;7.00;;;;;;;20.16;100.00;101102.72;2074225;28;20208;-66
2023/06/18 04:20:03;;;;;;;7.93;7.13;;;;;;;20.12;100.00;101099.31;2074174;28;20252;-67
2023/06/18 04:21:05;;;;;;;8.17;7.30;;;;;;;20.11;100.00;101105.47;2074319;28;20577;-67
2023/06/18 04:22:06;;;;;;;8.30;7.37;;;;;;;19.73;100.00;101057.69;2073992;28;20467;-66
2023/06/18 04:23:06;;;;;;;8.23;7.00;;;;;;;20.00;100.00;101097.56;2073965;28;20486;-67
2023/06/18 04:24:07;;;;;;;8.47;7.13;;;;;;;20.09;100.00;101113.59;2074085;28;20193;-66
2023/06/18 04:25:07;;;;;;;8.70;7.53;;;;;;;20.10;100.00;101101.06;2073978;28;20189;-66
2023/06/18 04:26:08;;;;;;;8.00;7.23;;;;;;;20.18;100.00;101110.69;2074349;28;20182;-67
2023/06/18 04:27:08;;;;;;;7.97;7.17;;;;;;;20.05;100.00;101087.69;2074090;28;20562;-66
2023/06/18 04:28:09;;;;;;;8.63;7.53;;;;;;;20.19;100.00;101101.75;2074047;28;20194;-65
2023/06/18 04:29:09;;;;;;;8.93;7.53;;;;;;;20.25;100.00;101113.09;2074064;28;20193;-66
2023/06/18 04:30:10;;;;;;;8.97;7.90;;;;;;;20.30;100.00;101118.81;2074162;28;20185;-67
2023/06/18 04:31:10;;;;;;;8.13;7.33;;;;;;;20.35;100.00;101114.53;2074024;28;20205;-66
2023/06/18 04:32:11;;;;;;;7.90;7.20;;;;;;;20.35;100.00;101111.72;2074099;28;20214;-67
2023/06/18 04:33:11;;;;;;;8.50;7.70;;;;;;;20.35;100.00;101118.13;2073771;28;20193;-66
2023/06/18 04:34:12;;;;;;;9.37;7.40;;;;;;;20.38;100.00;101117.16;2074141;28;20257;-66
2023/06/18 04:35:13;;;;;;;8.13;7.30;;;;;;;19.68;100.00;101002.94;2073997;28;20614;-66
2023/06/18 04:36:14;;;;;;;9.13;7.63;;;;;;;19.71;100.00;101010.38;2074055;28;20443;-66
2023/06/18 04:37:15;;;;;;;9.70;7.47;;;;;;;19.68;100.00;100997.31;2074107;28;20259;-67
2023/06/18 04:38:15;;;;;;;9.23;7.27;;;;;;;20.46;100.00;101128.81;2074006;28;20428;-66
2023/06/18 04:39:16;;;;;;;8.57;7.47;;;;;;;20.47;100.00;101125.47;2073981;28;20201;-67
2023/06/18 04:40:18;;;;;;;9.23;7.13;;;;;;;20.44;100.00;101120.84;2074028;28;20189;-66